sensor_id;sensor_type;location;lat;lon;timestamp;pressure;altitude;pressure_sealevel;temperature;humidity
40171;BME280;37650;52.790;18.268;2023-04-03T00:02:45;101575.84;;;-0.45;100.00
40171;BME280;37650;52.790;18.268;2023-04-03T00:06:06;101573.92;;;-0.46;100.00
40171;BME280;37650;52.790;18.268;2023-04-03T00:09:29;101574.35;;;-0.49;100.00
40171;BME280;37650;52.790;18.268;2023-04-03T00:12:50;101573.38;;;-0.54;100.00
40171;BME280;37650;52.790;18.268;2023-04-03T00:16:12;101579.73;;;-0.55;100.00
40171;BME280;37650;52.790;18.268;2023-04-03T00:19:33;101578.67;;;-0.55;100.00
40171;BME280;37650;52.790;18.268;2023-04-03T00:22:54;101575.10;;;-0.54;100.00
40171;BME280;37650;52.790;18.268;2023-04-03T00:26:15;101574.35;;;-0.55;100.00
40171;BME280;37650;52.790;18.268;2023-04-03T00:29:37;101574.95;;;-0.59;100.00
40171;BME280;37650;52.790;18.268;2023-04-03T00:32:59;101578.63;;;-0.63;100.00
40171;BME280;37650;52.790;18.268;2023-04-03T00:36:21;101576.46;;;-0.66;100.00
40171;BME280;37650;52.790;18.268;2023-04-03T00:39:43;101579.54;;;-0.67;100.00
40171;BME280;37650;52.790;18.268;2023-04-03T00:43:30;101577.14;;;-0.67;100.00
40171;BME280;37650;52.790;18.268;2023-04-03T00:46:51;101574.43;;;-0.66;100.00
40171;BME280;37650;52.790;18.268;2023-04-03T00:50:13;101575.24;;;-0.67;100.00
40171;BME280;37650;52.790;18.268;2023-04-03T00:53:39;101583.73;;;-0.72;100.00
40171;BME280;37650;52.790;18.268;2023-04-03T00:57:01;101583.33;;;-0.74;100.00
40171;BME280;37650;52.790;18.268;2023-04-03T01:00:24;101584.40;;;-0.72;100.00
40171;BME280;37650;52.790;18.268;2023-04-03T01:03:45;101578.09;;;-0.70;100.00
40171;BME280;37650;52.790;18.268;2023-04-03T01:07:16;101585.33;;;-0.70;100.00
40171;BME280;37650;52.790;18.268;2023-04-03T01:10:38;101583.87;;;-0.73;100.00
40171;BME280;37650;52.790;18.268;2023-04-03T01:14:00;101587.77;;;-0.75;100.00
40171;BME280;37650;52.790;18.268;2023-04-03T01:17:36;101583.93;;;-0.77;100.00
40171;BME280;37650;52.790;18.268;2023-04-03T01:24:52;101590.91;;;-0.79;100.00
40171;BME280;37650;52.790;18.268;2023-04-03T01:28:30;101589.02;;;-0.79;100.00
40171;BME280;37650;52.790;18.268;2023-04-03T01:31:54;101590.38;;;-0.80;100.00
40171;BME280;37650;52.790;18.268;2023-04-03T01:35:16;101597.27;;;-0.80;100.00
40171;BME280;37650;52.790;18.268;2023-04-03T01:38:37;101595.27;;;-0.84;100.00
40171;BME280;37650;52.790;18.268;2023-04-03T01:41:59;101597.10;;;-0.86;100.00
40171;BME280;37650;52.790;18.268;2023-04-03T01:45:32;101593.81;;;-0.87;100.00
40171;BME280;37650;52.790;18.268;2023-04-03T01:48:54;101599.30;;;-0.88;100.00
40171;BME280;37650;52.790;18.268;2023-04-03T01:52:15;101601.80;;;-0.91;100.00
40171;BME280;37650;52.790;18.268;2023-04-03T01:55:36;101606.35;;;-0.94;100.00
40171;BME280;37650;52.790;18.268;2023-04-03T01:58:58;101608.52;;;-0.96;100.00
40171;BME280;37650;52.790;18.268;2023-04-03T02:02:19;101612.44;;;-0.98;100.00
40171;BME280;37650;52.790;18.268;2023-04-03T02:05:41;101612.29;;;-0.97;100.00
40171;BME280;37650;52.790;18.268;2023-04-03T02:09:04;101610.56;;;-0.97;100.00
40171;BME280;37650;52.790;18.268;2023-04-03T02:12:24;101613.44;;;-0.99;100.00
40171;BME280;37650;52.790;18.268;2023-04-03T02:15:47;101612.82;;;-1.02;100.00
40171;BME280;37650;52.790;18.268;2023-04-03T02:19:09;101614.54;;;-1.08;100.00
40171;BME280;37650;52.790;18.268;2023-04-03T02:22:31;101616.45;;;-1.14;100.00
40171;BME280;37650;52.790;18.268;2023-04-03T02:25:52;101611.34;;;-1.17;100.00
40171;BME280;37650;52.790;18.268;2023-04-03T02:29:14;101611.64;;;-1.19;100.00
40171;BME280;37650;52.790;18.268;2023-04-03T02:32:35;101612.59;;;-1.21;100.00
40171;BME280;37650;52.790;18.268;2023-04-03T02:35:57;101615.80;;;-1.24;100.00
40171;BME280;37650;52.790;18.268;2023-04-03T02:39:19;101619.07;;;-1.29;100.00
40171;BME280;37650;52.790;18.268;2023-04-03T02:42:41;101624.60;;;-1.34;100.00
40171;BME280;37650;52.790;18.268;2023-04-03T02:46:02;101619.92;;;-1.40;100.00
40171;BME280;37650;52.790;18.268;2023-04-03T02:49:26;101626.11;;;-1.46;100.00
40171;BME280;37650;52.790;18.268;2023-04-03T02:52:47;101629.46;;;-1.49;100.00
40171;BME280;37650;52.790;18.268;2023-04-03T02:56:08;101629.06;;;-1.51;100.00
40171;BME280;37650;52.790;18.268;2023-04-03T02:59:29;101631.60;;;-1.52;100.00
40171;BME280;37650;52.790;18.268;2023-04-03T03:02:51;101633.58;;;-1.55;100.00
40171;BME280;37650;52.790;18.268;2023-04-03T03:06:15;101635.55;;;-1.58;100.00
40171;BME280;37650;52.790;18.268;2023-04-03T03:09:37;101634.77;;;-1.61;100.00
40171;BME280;37650;52.790;18.268;2023-04-03T03:12:59;101637.56;;;-1.65;100.00
40171;BME280;37650;52.790;18.268;2023-04-03T03:16:21;101636.30;;;-1.66;100.00
40171;BME280;37650;52.790;18.268;2023-04-03T03:19:43;101637.50;;;-1.67;100.00
40171;BME280;37650;52.790;18.268;2023-04-03T03:23:05;101642.52;;;-1.66;100.00
40171;BME280;37650;52.790;18.268;2023-04-03T03:26:26;101641.83;;;-1.66;100.00
40171;BME280;37650;52.790;18.268;2023-04-03T03:29:48;101644.94;;;-1.66;100.00
40171;BME280;37650;52.790;18.268;2023-04-03T03:33:09;101648.88;;;-1.66;100.00
40171;BME280;37650;52.790;18.268;2023-04-03T03:36:30;101654.27;;;-1.69;100.00
40171;BME280;37650;52.790;18.268;2023-04-03T03:39:52;101655.96;;;-1.70;100.00
40171;BME280;37650;52.790;18.268;2023-04-03T03:43:13;101652.40;;;-1.69;100.00
40171;BME280;37650;52.790;18.268;2023-04-03T03:46:35;101661.10;;;-1.66;100.00
40171;BME280;37650;52.790;18.268;2023-04-03T03:49:56;101664.36;;;-1.66;100.00
40171;BME280;37650;52.790;18.268;2023-04-03T03:53:17;101663.79;;;-1.68;100.00
40171;BME280;37650;52.790;18.268;2023-04-03T03:56:39;101663.92;;;-1.69;100.00
40171;BME280;37650;52.790;18.268;2023-04-03T04:00:00;101663.50;;;-1.66;100.00
40171;BME280;37650;52.790;18.268;2023-04-03T04:03:22;101664.77;;;-1.64;100.00
40171;BME280;37650;52.790;18.268;2023-04-03T04:06:43;101665.91;;;-1.61;100.00
40171;BME280;37650;52.790;18.268;2023-04-03T04:10:07;101665.74;;;-1.61;100.00
40171;BME280;37650;52.790;18.268;2023-04-03T04:13:29;101670.55;;;-1.61;100.00
40171;BME280;37650;52.790;18.268;2023-04-03T04:16:50;101674.23;;;-1.64;100.00
40171;BME280;37650;52.790;18.268;2023-04-03T04:20:15;101675.26;;;-1.64;100.00
40171;BME280;37650;52.790;18.268;2023-04-03T04:23:36;101679.45;;;-1.63;100.00
40171;BME280;37650;52.790;18.268;2023-04-03T04:26:58;101680.05;;;-1.60;100.00
40171;BME280;37650;52.790;18.268;2023-04-03T04:30:20;101684.42;;;-1.58;100.00
40171;BME280;37650;52.790;18.268;2023-04-03T04:33:42;101684.13;;;-1.56;100.00
40171;BME280;37650;52.790;18.268;2023-04-03T04:37:05;101683.66;;;-1.55;100.00
40171;BME280;37650;52.790;18.268;2023-04-03T04:40:26;101681.23;;;-1.29;100.00
40171;BME280;37650;52.790;18.268;2023-04-03T04:43:49;101689.63;;;-1.03;100.00
40171;BME280;37650;52.790;18.268;2023-04-03T04:47:11;101694.52;;;-1.11;100.00
40171;BME280;37650;52.790;18.268;2023-04-03T04:50:31;101694.86;;;-1.17;100.00
40171;BME280;37650;52.790;18.268;2023-04-03T04:53:53;101700.59;;;-1.10;100.00
40171;BME280;37650;52.790;18.268;2023-04-03T04:57:14;101702.81;;;-1.10;100.00
40171;BME280;37650;52.790;18.268;2023-04-03T05:00:37;101706.23;;;-1.11;100.00
40171;BME280;37650;52.790;18.268;2023-04-03T05:03:58;101710.88;;;-1.06;100.00
40171;BME280;37650;52.790;18.268;2023-04-03T05:07:19;101709.10;;;-0.80;100.00
40171;BME280;37650;52.790;18.268;2023-04-03T05:10:41;101710.38;;;0.27;100.00
40171;BME280;37650;52.790;18.268;2023-04-03T05:14:04;101707.73;;;1.25;100.00
40171;BME280;37650;52.790;18.268;2023-04-03T05:17:27;101706.61;;;1.96;100.00
40171;BME280;37650;52.790;18.268;2023-04-03T05:20:50;101703.16;;;2.55;100.00
40171;BME280;37650;52.790;18.268;2023-04-03T05:24:13;101706.21;;;3.19;100.00
40171;BME280;37650;52.790;18.268;2023-04-03T05:27:36;101707.20;;;3.53;100.00
40171;BME280;37650;52.790;18.268;2023-04-03T05:30:58;101703.88;;;3.94;100.00
40171;BME280;37650;52.790;18.268;2023-04-03T05:34:21;101709.59;;;4.25;100.00
40171;BME280;37650;52.790;18.268;2023-04-03T05:37:43;101708.66;;;4.78;100.00
40171;BME280;37650;52.790;18.268;2023-04-03T05:41:05;101708.73;;;5.13;100.00
40171;BME280;37650;52.790;18.268;2023-04-03T05:44:27;101709.39;;;5.36;100.00
40171;BME280;37650;52.790;18.268;2023-04-03T05:47:49;101706.33;;;5.50;100.00
40171;BME280;37650;52.790;18.268;2023-04-03T05:51:16;101708.92;;;5.45;100.00
40171;BME280;37650;52.790;18.268;2023-04-03T05:54:38;101714.07;;;5.65;100.00
40171;BME280;37650;52.790;18.268;2023-04-03T05:58:07;101714.36;;;5.88;100.00
40171;BME280;37650;52.790;18.268;2023-04-03T06:01:29;101719.09;;;5.98;100.00
40171;BME280;37650;52.790;18.268;2023-04-03T06:04:51;101721.08;;;6.25;97.98
40171;BME280;37650;52.790;18.268;2023-04-03T06:08:13;101720.41;;;6.44;99.12
40171;BME280;37650;52.790;18.268;2023-04-03T06:11:35;101721.81;;;6.75;98.26
40171;BME280;37650;52.790;18.268;2023-04-03T06:14:56;101725.30;;;6.92;94.13
40171;BME280;37650;52.790;18.268;2023-04-03T06:18:18;101730.50;;;7.20;95.18
40171;BME280;37650;52.790;18.268;2023-04-03T06:21:39;101730.59;;;7.54;94.52
40171;BME280;37650;52.790;18.268;2023-04-03T06:25:01;101729.77;;;7.84;91.36
40171;BME280;37650;52.790;18.268;2023-04-03T06:28:23;101735.77;;;7.72;88.99
40171;BME280;37650;52.790;18.268;2023-04-03T06:31:44;101733.21;;;7.98;89.58
40171;BME280;37650;52.790;18.268;2023-04-03T06:35:06;101736.76;;;8.22;87.86
40171;BME280;37650;52.790;18.268;2023-04-03T06:38:27;101737.28;;;8.22;85.15
40171;BME280;37650;52.790;18.268;2023-04-03T06:41:49;101738.50;;;8.24;83.38
40171;BME280;37650;52.790;18.268;2023-04-03T06:45:11;101741.48;;;8.19;82.37
40171;BME280;37650;52.790;18.268;2023-04-03T06:48:33;101743.45;;;8.46;81.40
40171;BME280;37650;52.790;18.268;2023-04-03T06:51:55;101746.66;;;8.35;77.18
40171;BME280;37650;52.790;18.268;2023-04-03T06:55:17;101751.76;;;8.30;74.40
40171;BME280;37650;52.790;18.268;2023-04-03T06:58:39;101751.63;;;8.20;70.23
40171;BME280;37650;52.790;18.268;2023-04-03T07:02:02;101763.95;;;8.01;71.16
40171;BME280;37650;52.790;18.268;2023-04-03T07:05:24;101766.29;;;8.23;70.80
40171;BME280;37650;52.790;18.268;2023-04-03T07:08:47;101764.61;;;8.45;68.86
40171;BME280;37650;52.790;18.268;2023-04-03T07:12:10;101772.52;;;8.42;67.31
40171;BME280;37650;52.790;18.268;2023-04-03T07:15:31;101778.25;;;8.44;65.09
40171;BME280;37650;52.790;18.268;2023-04-03T07:18:53;101774.52;;;8.20;64.63
40171;BME280;37650;52.790;18.268;2023-04-03T07:22:14;101780.42;;;7.89;63.75
40171;BME280;37650;52.790;18.268;2023-04-03T07:25:36;101784.36;;;7.59;62.27
40171;BME280;37650;52.790;18.268;2023-04-03T07:28:58;101789.11;;;7.39;62.75
40171;BME280;37650;52.790;18.268;2023-04-03T07:32:20;101792.83;;;7.06;62.92
40171;BME280;37650;52.790;18.268;2023-04-03T07:35:42;101795.27;;;7.03;62.29
40171;BME280;37650;52.790;18.268;2023-04-03T07:39:03;101794.20;;;6.97;62.30
40171;BME280;37650;52.790;18.268;2023-04-03T07:42:25;101788.27;;;6.82;62.21
40171;BME280;37650;52.790;18.268;2023-04-03T07:45:49;101792.10;;;6.84;63.39
40171;BME280;37650;52.790;18.268;2023-04-03T07:49:14;101797.81;;;7.58;63.11
40171;BME280;37650;52.790;18.268;2023-04-03T07:52:35;101793.61;;;7.66;60.72
40171;BME280;37650;52.790;18.268;2023-04-03T07:55:57;101796.49;;;7.91;59.57
40171;BME280;37650;52.790;18.268;2023-04-03T07:59:19;101793.14;;;8.39;60.87
40171;BME280;37650;52.790;18.268;2023-04-03T08:02:41;101792.51;;;8.83;57.61
40171;BME280;37650;52.790;18.268;2023-04-03T08:06:04;101792.50;;;9.07;55.82
40171;BME280;37650;52.790;18.268;2023-04-03T08:09:26;101795.19;;;9.21;55.54
40171;BME280;37650;52.790;18.268;2023-04-03T08:12:48;101800.06;;;9.58;56.11
40171;BME280;37650;52.790;18.268;2023-04-03T08:16:17;101803.18;;;9.94;54.53
40171;BME280;37650;52.790;18.268;2023-04-03T08:19:39;101800.88;;;10.26;52.67
40171;BME280;37650;52.790;18.268;2023-04-03T08:23:01;101800.88;;;9.96;50.90
40171;BME280;37650;52.790;18.268;2023-04-03T08:26:23;101801.39;;;9.82;51.96
40171;BME280;37650;52.790;18.268;2023-04-03T08:29:44;101799.28;;;10.26;52.21
40171;BME280;37650;52.790;18.268;2023-04-03T08:33:06;101798.15;;;10.32;49.78
40171;BME280;37650;52.790;18.268;2023-04-03T08:36:28;101798.94;;;10.65;50.51
40171;BME280;37650;52.790;18.268;2023-04-03T08:39:50;101799.42;;;10.67;49.34
40171;BME280;37650;52.790;18.268;2023-04-03T08:50:34;101804.11;;;11.34;46.74
40171;BME280;37650;52.790;18.268;2023-04-03T08:54:01;101804.61;;;11.35;46.05
40171;BME280;37650;52.790;18.268;2023-04-03T08:57:35;101805.33;;;11.83;46.34
40171;BME280;37650;52.790;18.268;2023-04-03T09:01:02;101801.54;;;11.89;42.65
40171;BME280;37650;52.790;18.268;2023-04-03T09:04:27;101806.56;;;11.54;42.57
40171;BME280;37650;52.790;18.268;2023-04-03T09:15:22;101807.95;;;12.10;40.90
40171;BME280;37650;52.790;18.268;2023-04-03T09:18:50;101802.89;;;12.17;39.68
40171;BME280;37650;52.790;18.268;2023-04-03T09:22:27;101805.00;;;12.25;40.22
40171;BME280;37650;52.790;18.268;2023-04-03T09:25:51;101805.52;;;12.80;39.70
40171;BME280;37650;52.790;18.268;2023-04-03T09:29:18;101807.09;;;12.95;37.82
40171;BME280;37650;52.790;18.268;2023-04-03T09:32:44;101804.11;;;13.24;38.46
40171;BME280;37650;52.790;18.268;2023-04-03T09:36:06;101806.08;;;13.08;37.56
40171;BME280;37650;52.790;18.268;2023-04-03T09:39:29;101803.17;;;12.44;37.45
40171;BME280;37650;52.790;18.268;2023-04-03T09:42:50;101810.73;;;11.85;37.48
40171;BME280;37650;52.790;18.268;2023-04-03T09:46:30;101814.84;;;11.92;38.44
40171;BME280;37650;52.790;18.268;2023-04-03T09:53:43;101808.52;;;12.49;38.00
40171;BME280;37650;52.790;18.268;2023-04-03T09:57:11;101799.91;;;12.64;37.99
40171;BME280;37650;52.790;18.268;2023-04-03T10:00:36;101811.93;;;12.13;38.04
40171;BME280;37650;52.790;18.268;2023-04-03T10:04:24;101805.86;;;12.17;38.24
40171;BME280;37650;52.790;18.268;2023-04-03T10:07:46;101802.30;;;13.04;37.02
40171;BME280;37650;52.790;18.268;2023-04-03T10:14:38;101793.20;;;14.07;34.97
40171;BME280;37650;52.790;18.268;2023-04-03T10:18:10;101795.52;;;14.54;35.60
40171;BME280;37650;52.790;18.268;2023-04-03T10:21:50;101796.46;;;15.33;34.80
40171;BME280;37650;52.790;18.268;2023-04-03T10:25:27;101789.22;;;16.06;34.36
40171;BME280;37650;52.790;18.268;2023-04-03T10:40:29;101782.35;;;17.08;31.23
40171;BME280;37650;52.790;18.268;2023-04-03T10:58:37;101782.23;;;15.02;32.57
40171;BME280;37650;52.790;18.268;2023-04-03T11:02:40;101782.87;;;14.40;33.22
40171;BME280;37650;52.790;18.268;2023-04-03T20:34:09;101793.31;;;1.33;68.06
40171;BME280;37650;52.790;18.268;2023-04-03T20:37:31;101788.98;;;1.32;68.30
40171;BME280;37650;52.790;18.268;2023-04-03T20:40:52;101783.52;;;1.29;68.13
40171;BME280;37650;52.790;18.268;2023-04-03T20:44:13;101783.79;;;1.25;68.23
40171;BME280;37650;52.790;18.268;2023-04-03T20:47:35;101779.65;;;1.25;68.28
40171;BME280;37650;52.790;18.268;2023-04-03T20:50:57;101776.34;;;1.25;68.11
40171;BME280;37650;52.790;18.268;2023-04-03T20:54:19;101777.35;;;1.24;68.07
40171;BME280;37650;52.790;18.268;2023-04-03T20:57:40;101773.69;;;1.21;68.15
40171;BME280;37650;52.790;18.268;2023-04-03T21:01:12;101781.14;;;1.22;68.11
40171;BME280;37650;52.790;18.268;2023-04-03T21:04:44;101780.38;;;1.19;67.56
40171;BME280;37650;52.790;18.268;2023-04-03T21:19:18;101785.33;;;1.10;67.25
40171;BME280;37650;52.790;18.268;2023-04-03T21:22:40;101787.02;;;1.08;66.92
40171;BME280;37650;52.790;18.268;2023-04-03T21:26:03;101788.06;;;1.08;66.87
40171;BME280;37650;52.790;18.268;2023-04-03T21:29:24;101789.06;;;1.06;66.59
40171;BME280;37650;52.790;18.268;2023-04-03T21:32:46;101785.54;;;1.04;66.63
40171;BME280;37650;52.790;18.268;2023-04-03T21:36:08;101782.19;;;1.01;66.76
40171;BME280;37650;52.790;18.268;2023-04-03T21:39:30;101783.31;;;0.98;66.63
40171;BME280;37650;52.790;18.268;2023-04-03T21:42:54;101780.17;;;0.96;66.80
40171;BME280;37650;52.790;18.268;2023-04-03T21:46:15;101783.88;;;0.93;66.77
40171;BME280;37650;52.790;18.268;2023-04-03T21:49:37;101784.30;;;0.89;67.02
40171;BME280;37650;52.790;18.268;2023-04-03T21:52:58;101788.54;;;0.86;67.28
40171;BME280;37650;52.790;18.268;2023-04-03T21:56:20;101785.84;;;0.81;67.13
40171;BME280;37650;52.790;18.268;2023-04-03T21:59:44;101785.55;;;0.76;67.22
40171;BME280;37650;52.790;18.268;2023-04-03T22:03:06;101784.29;;;0.75;67.52
40171;BME280;37650;52.790;18.268;2023-04-03T22:06:28;101783.69;;;0.71;67.62
40171;BME280;37650;52.790;18.268;2023-04-03T22:09:49;101779.90;;;0.65;67.55
40171;BME280;37650;52.790;18.268;2023-04-03T22:13:10;101778.61;;;0.62;68.19
40171;BME280;37650;52.790;18.268;2023-04-03T22:16:31;101774.05;;;0.59;68.17
40171;BME280;37650;52.790;18.268;2023-04-03T22:19:53;101772.95;;;0.57;68.11
40171;BME280;37650;52.790;18.268;2023-04-03T22:23:14;101775.18;;;0.56;68.51
40171;BME280;37650;52.790;18.268;2023-04-03T22:26:35;101775.67;;;0.55;68.29
40171;BME280;37650;52.790;18.268;2023-04-03T22:29:57;101777.63;;;0.57;68.59
40171;BME280;37650;52.790;18.268;2023-04-03T22:33:19;101779.14;;;0.56;68.60
40171;BME280;37650;52.790;18.268;2023-04-03T22:36:40;101781.45;;;0.52;68.73
40171;BME280;37650;52.790;18.268;2023-04-03T22:40:03;101783.77;;;0.48;68.89
40171;BME280;37650;52.790;18.268;2023-04-03T22:43:25;101784.27;;;0.47;69.42
40171;BME280;37650;52.790;18.268;2023-04-03T22:46:47;101777.84;;;0.45;69.44
40171;BME280;37650;52.790;18.268;2023-04-03T22:50:08;101776.05;;;0.44;69.63
40171;BME280;37650;52.790;18.268;2023-04-03T22:53:30;101772.75;;;0.42;69.53
40171;BME280;37650;52.790;18.268;2023-04-03T22:56:52;101773.59;;;0.41;69.96
40171;BME280;37650;52.790;18.268;2023-04-03T23:00:14;101773.55;;;0.40;69.94
40171;BME280;37650;52.790;18.268;2023-04-03T23:03:37;101772.13;;;0.38;70.06
40171;BME280;37650;52.790;18.268;2023-04-03T23:06:59;101766.51;;;0.34;70.49
40171;BME280;37650;52.790;18.268;2023-04-03T23:10:20;101772.38;;;0.28;70.30
40171;BME280;37650;52.790;18.268;2023-04-03T23:13:42;101773.15;;;0.25;70.43
40171;BME280;37650;52.790;18.268;2023-04-03T23:17:03;101766.90;;;0.23;71.10
40171;BME280;37650;52.790;18.268;2023-04-03T23:20:25;101768.80;;;0.24;70.89
40171;BME280;37650;52.790;18.268;2023-04-03T23:23:47;101767.04;;;0.22;70.97
40171;BME280;37650;52.790;18.268;2023-04-03T23:27:08;101760.48;;;0.22;70.98
40171;BME280;37650;52.790;18.268;2023-04-03T23:30:29;101758.89;;;0.15;70.79
40171;BME280;37650;52.790;18.268;2023-04-03T23:33:50;101754.20;;;0.08;70.89
40171;BME280;37650;52.790;18.268;2023-04-03T23:37:11;101752.20;;;0.03;71.24
40171;BME280;37650;52.790;18.268;2023-04-03T23:40:33;101751.51;;;-0.03;71.32
40171;BME280;37650;52.790;18.268;2023-04-03T23:43:54;101748.45;;;-0.07;71.56
40171;BME280;37650;52.790;18.268;2023-04-03T23:47:15;101749.56;;;-0.11;71.77
40171;BME280;37650;52.790;18.268;2023-04-03T23:50:37;101749.30;;;-0.14;72.09
40171;BME280;37650;52.790;18.268;2023-04-03T23:53:58;101752.71;;;-0.21;71.83
40171;BME280;37650;52.790;18.268;2023-04-03T23:57:19;101752.27;;;-0.30;71.86
